Gann Valley, South Dakota
Current Conditions -  °F | °C
As of 1:35 AM on Sunday 23 Nov 2014 (Local Time) from K9V9 Reporting Station
Overcast Overcast  
Wind Chill: 38°   Ceiling: 9000
Heat Index: 38°   Visibility: 10mi
Dew Point: 33°   Wind: 3mph
Humidity: 81%   Direction: 340°NNW
Pressure: 29.4"   Gusts: NA
Location:  44.03°N, 98.99°W
Report Text: K9V9 230735Z AUTO 34003KT 10SM OVC090 03/00 A2940 RMK AO2 T00330004
Loading
Personal Weather Stations






























Interactive Weather Map New forecast layout! Learn more

10-Day Weather Forecast

Advertisements
Track Severe Weather on mobile